createdAt,value
2023-05-06T00:03:20.393Z,96.50
2023-05-06T00:08:26.239Z,96.50
2023-05-06T00:13:34.259Z,96.30
2023-05-06T00:18:39.793Z,96.30
2023-05-06T00:23:45.069Z,96.40
2023-05-06T00:28:50.217Z,96.00
2023-05-06T00:33:58.093Z,95.50
2023-05-06T00:39:04.478Z,95.10
2023-05-06T00:44:10.139Z,94.10
2023-05-06T00:49:16.113Z,92.90
2023-05-06T00:54:21.673Z,92.10
2023-05-06T00:59:27.064Z,90.80
2023-05-06T01:04:33.764Z,89.20
2023-05-06T01:09:54.042Z,87.90
2023-05-06T01:15:19.870Z,87.00
2023-05-06T01:20:27.287Z,85.50
2023-05-06T01:25:33.873Z,84.60
2023-05-06T01:31:05.970Z,85.50
2023-05-06T01:36:24.353Z,83.70
2023-05-06T01:41:31.672Z,82.70
2023-05-06T01:46:37.503Z,81.90
2023-05-06T01:51:44.441Z,81.60
2023-05-06T01:56:49.668Z,81.40
2023-05-06T02:01:54.761Z,80.60
2023-05-06T02:06:59.999Z,79.50
2023-05-06T02:12:05.340Z,79.40
2023-05-06T02:17:10.560Z,77.90
2023-05-06T02:22:15.769Z,77.70
2023-05-06T02:27:20.911Z,76.50
2023-05-06T02:32:26.293Z,75.70
2023-05-06T02:37:31.605Z,75.10
2023-05-06T02:42:37.528Z,74.00
2023-05-06T02:47:42.908Z,73.80
2023-05-06T02:52:48.004Z,74.90
2023-05-06T02:57:53.243Z,74.20
2023-05-06T03:02:58.447Z,74.20
2023-05-06T03:08:03.789Z,74.90
2023-05-06T03:13:09.053Z,72.70
2023-05-06T03:18:14.247Z,73.00
2023-05-06T03:23:19.483Z,72.60
2023-05-06T03:28:24.701Z,72.20
2023-05-06T03:33:29.893Z,72.00
2023-05-06T03:38:35.166Z,72.90
2023-05-06T03:43:43.135Z,72.00
2023-05-06T03:48:48.225Z,72.00
2023-05-06T03:53:54.905Z,71.60
2023-05-06T03:59:00.188Z,71.80
2023-05-06T04:04:05.697Z,71.50
2023-05-06T04:09:10.946Z,72.80
2023-05-06T04:14:16.086Z,71.50
2023-05-06T04:19:22.115Z,72.40
2023-05-06T04:24:29.331Z,71.40
2023-05-06T04:29:34.579Z,71.20
2023-05-06T04:34:39.810Z,71.80
2023-05-06T04:39:47.008Z,71.60
2023-05-06T04:44:52.290Z,72.00
2023-05-06T04:49:58.773Z,72.90
2023-05-06T04:55:09.308Z,72.60
2023-05-06T05:00:16.614Z,74.80
2023-05-06T05:05:21.673Z,74.90
2023-05-06T05:10:28.096Z,74.80
2023-05-06T05:15:33.620Z,72.80
2023-05-06T05:20:39.573Z,72.60
2023-05-06T05:25:44.803Z,73.00
2023-05-06T05:30:50.178Z,71.80
2023-05-06T05:35:58.762Z,72.20
2023-05-06T05:41:04.114Z,71.30
2023-05-06T05:46:09.668Z,73.00
2023-05-06T05:51:16.317Z,72.50
2023-05-06T05:56:22.179Z,72.20
2023-05-06T06:01:28.010Z,73.40
2023-05-06T06:06:38.644Z,74.60
2023-05-06T06:11:42.482Z,74.30
2023-05-06T06:16:47.730Z,74.80
2023-05-06T06:21:52.913Z,75.30
2023-05-06T06:26:59.247Z,75.20
2023-05-06T06:32:07.206Z,77.50
2023-05-06T06:37:15.481Z,77.40
2023-05-06T06:42:21.234Z,77.70
2023-05-06T06:47:26.497Z,77.90
2023-05-06T06:52:31.645Z,78.20
2023-05-06T06:57:38.668Z,79.70
2023-05-06T07:02:43.810Z,80.20
2023-05-06T07:07:49.059Z,80.40
2023-05-06T07:12:55.129Z,80.70
2023-05-06T07:18:02.476Z,80.70
2023-05-06T07:23:07.836Z,81.50
2023-05-06T07:28:17.403Z,82.30
2023-05-06T07:33:25.694Z,83.20
2023-05-06T07:38:30.743Z,84.90
2023-05-06T07:43:36.213Z,86.30
2023-05-06T07:48:45.653Z,87.50
2023-05-06T07:53:53.044Z,89.40
2023-05-06T07:59:00.198Z,90.70
2023-05-06T08:04:06.501Z,91.70
2023-05-06T08:09:16.991Z,92.20
2023-05-06T08:14:21.178Z,94.80
2023-05-06T08:19:27.267Z,96.10
2023-05-06T08:24:32.556Z,97.60
2023-05-06T08:29:41.178Z,99.90
2023-05-06T08:34:52.955Z,99.90
2023-05-06T08:40:16.486Z,99.90
2023-05-06T08:45:29.520Z,99.90
2023-05-06T08:50:42.375Z,99.90
2023-05-06T08:56:05.259Z,99.90
2023-05-06T09:01:10.622Z,99.90
2023-05-06T09:06:18.634Z,99.90
2023-05-06T09:11:27.151Z,99.90
2023-05-06T09:16:32.751Z,99.90
2023-05-06T09:21:44.098Z,99.90
2023-05-06T09:26:49.449Z,99.90
2023-05-06T09:32:03.181Z,99.90
2023-05-06T09:37:08.546Z,99.90
2023-05-06T09:42:14.538Z,99.90
2023-05-06T09:47:19.838Z,99.90
2023-05-06T09:52:25.794Z,99.90
2023-05-06T09:57:33.338Z,99.90
2023-05-06T10:02:43.748Z,99.90
2023-05-06T10:07:50.261Z,99.90
2023-05-06T10:12:56.759Z,99.90
2023-05-06T10:18:04.989Z,99.90
2023-05-06T10:23:28.356Z,99.90
2023-05-06T10:28:37.135Z,99.90
2023-05-06T10:33:53.849Z,99.90
2023-05-06T10:39:05.003Z,99.90
2023-05-06T10:44:12.905Z,99.90
2023-05-06T10:49:20.143Z,99.90
2023-05-06T10:54:26.073Z,99.90
2023-05-06T10:59:36.325Z,99.90
2023-05-06T11:04:42.613Z,99.90
2023-05-06T11:10:09.157Z,99.90
2023-05-06T11:15:23.370Z,99.90
2023-05-06T11:20:29.141Z,99.90
2023-05-06T11:25:48.448Z,99.90
2023-05-06T11:30:56.128Z,99.90
2023-05-06T11:36:02.766Z,99.90
2023-05-06T11:41:14.245Z,99.90
2023-05-06T11:46:15.253Z,99.90
2023-05-06T11:51:24.017Z,99.90
2023-05-06T11:56:33.959Z,99.90
2023-05-06T12:01:40.658Z,99.90
2023-05-06T12:06:47.154Z,99.90
2023-05-06T12:11:53.288Z,99.90
2023-05-06T12:16:58.695Z,99.90
2023-05-06T12:22:21.148Z,99.90
2023-05-06T12:27:33.798Z,99.90
2023-05-06T12:33:00.098Z,99.90
2023-05-06T12:38:18.475Z,99.90
2023-05-06T12:43:33.046Z,99.90
2023-05-06T12:48:42.717Z,99.90
2023-05-06T12:53:57.538Z,99.90
2023-05-06T12:59:07.146Z,99.90
2023-05-06T13:04:13.894Z,99.90
2023-05-06T13:09:40.964Z,99.90
2023-05-06T13:14:56.580Z,99.90
2023-05-06T13:20:08.904Z,99.90
2023-05-06T13:25:23.519Z,99.90
2023-05-06T13:30:37.100Z,99.90
2023-05-06T13:35:42.581Z,99.90
2023-05-06T13:40:56.164Z,99.90
2023-05-06T13:46:09.631Z,99.90
2023-05-06T13:51:19.449Z,99.90
2023-05-06T13:56:26.987Z,99.90
2023-05-06T14:01:53.999Z,99.90
2023-05-06T14:07:01.556Z,99.90
2023-05-06T14:12:07.678Z,99.90
2023-05-06T14:17:15.191Z,99.90
2023-05-06T14:22:21.909Z,99.90
2023-05-06T14:27:27.592Z,99.90
2023-05-06T14:32:33.326Z,99.90
2023-05-06T14:37:38.598Z,99.90
2023-05-06T14:42:43.696Z,99.90
2023-05-06T14:47:49.008Z,99.90
2023-05-06T14:52:54.201Z,99.90
2023-05-06T14:57:59.374Z,99.90
2023-05-06T15:03:08.561Z,99.90
2023-05-06T15:08:13.937Z,99.90
2023-05-06T15:13:19.526Z,99.90
2023-05-06T15:18:24.997Z,99.90
2023-05-06T15:23:31.803Z,99.90
2023-05-06T15:28:37.096Z,99.90
2023-05-06T15:33:44.418Z,99.90
2023-05-06T15:38:56.637Z,99.90
2023-05-06T15:44:06.074Z,99.90
2023-05-06T15:54:18.552Z,99.90
2023-05-06T15:59:24.013Z,99.90
2023-05-06T16:04:30.272Z,99.90
2023-05-06T16:09:36.335Z,99.90
2023-05-06T16:14:42.019Z,99.90
2023-05-06T16:19:49.133Z,99.90
2023-05-06T16:30:29.973Z,99.90
2023-05-06T16:35:42.320Z,99.90
2023-05-06T16:40:53.740Z,99.90
2023-05-06T16:46:16.812Z,99.90
2023-05-06T16:51:26.519Z,99.90
2023-05-06T16:56:44.028Z,99.90
2023-05-06T17:01:39.072Z,99.90
2023-05-06T17:06:48.230Z,99.90
2023-05-06T17:11:54.703Z,99.90
2023-05-06T17:17:06.421Z,99.90
2023-05-06T17:22:13.405Z,99.90
2023-05-06T17:27:20.114Z,99.90
2023-05-06T17:32:39.456Z,99.90
2023-05-06T17:37:53.509Z,99.90
2023-05-06T17:43:00.444Z,99.90
2023-05-06T17:48:10.784Z,99.90
2023-05-06T17:53:21.376Z,99.90
2023-05-06T17:58:45.222Z,99.90
2023-05-06T18:04:04.893Z,99.90
2023-05-06T18:09:22.041Z,99.90
2023-05-06T18:14:27.851Z,99.90
2023-05-06T18:19:34.158Z,99.90
2023-05-06T18:24:40.002Z,99.90
2023-05-06T18:29:46.744Z,99.90
2023-05-06T18:34:57.836Z,99.90
2023-05-06T18:40:22.961Z,99.90
2023-05-06T18:45:29.860Z,99.90
2023-05-06T18:50:44.720Z,99.90
2023-05-06T18:56:05.040Z,99.90
2023-05-06T19:01:12.887Z,99.90
2023-05-06T19:06:25.773Z,99.90
2023-05-06T19:11:36.321Z,99.90
2023-05-06T19:16:42.999Z,99.90
2023-05-06T19:21:56.823Z,99.90
2023-05-06T19:27:04.746Z,99.90
2023-05-06T19:32:23.049Z,99.90
2023-05-06T19:37:35.570Z,99.90
2023-05-06T19:42:40.898Z,99.90
2023-05-06T19:47:52.004Z,99.90
2023-05-06T19:53:11.655Z,99.90
2023-05-06T19:58:22.861Z,99.90
2023-05-06T20:03:32.504Z,99.90
2023-05-06T20:08:39.786Z,99.90
2023-05-06T20:13:50.061Z,99.90
2023-05-06T20:18:55.554Z,99.90
2023-05-06T20:24:01.295Z,99.90
2023-05-06T20:29:12.190Z,99.90
2023-05-06T20:34:20.568Z,99.90
2023-05-06T20:39:28.669Z,99.90
2023-05-06T20:44:39.686Z,99.90
2023-05-06T20:49:44.513Z,99.90
2023-05-06T20:54:50.168Z,99.90
2023-05-06T20:59:57.951Z,99.90
2023-05-06T21:05:13.130Z,99.90
2023-05-06T21:10:18.745Z,99.90
2023-05-06T21:15:24.908Z,99.90
2023-05-06T21:20:35.013Z,99.90
2023-05-06T21:25:53.928Z,99.90
2023-05-06T21:31:00.864Z,99.90
2023-05-06T21:36:06.528Z,99.90
2023-05-06T21:41:11.738Z,99.90
2023-05-06T21:46:21.773Z,99.90
2023-05-06T21:51:36.246Z,99.90
2023-05-06T21:56:45.167Z,99.90
2023-05-06T22:01:52.590Z,99.90
2023-05-06T22:06:57.941Z,99.90
2023-05-06T22:12:08.128Z,99.90
2023-05-06T22:17:17.588Z,99.90
2023-05-06T22:22:26.845Z,99.90
2023-05-06T22:27:36.046Z,99.90
2023-05-06T22:32:44.675Z,99.90
2023-05-06T22:38:00.517Z,99.90
2023-05-06T22:43:06.394Z,99.90
2023-05-06T22:48:12.285Z,99.90
2023-05-06T22:53:21.739Z,99.90
2023-05-06T22:58:30.249Z,99.90
2023-05-06T23:03:36.924Z,99.90
2023-05-06T23:08:42.487Z,99.90
2023-05-06T23:13:49.996Z,99.90
2023-05-06T23:19:02.888Z,99.90
2023-05-06T23:24:07.727Z,99.90
2023-05-06T23:29:17.775Z,99.90
2023-05-06T23:34:27.470Z,99.90
2023-05-06T23:39:38.753Z,99.90
2023-05-06T23:44:45.037Z,99.90
2023-05-06T23:49:50.273Z,99.90
2023-05-06T23:54:55.654Z,99.90
